EHFS

Vlissingen

Vlissingen, The Netherlands
METAR EHFS 240255Z AUTO 34007KT 9999 NSC 12/06 Q1030 W///H///
Observed Flight Rules
Sep-24 @ 02:55 UTC (51 minutes ago) Visual Flight Rules
Wind Visibility Clouds
340° at 7 knots 10,000+ meters
  • Clear skies
Temperatures Readings
Current 12°C / 54°F
Dewpoint 6°C / 43°F
Humidity 67%
Altimeter 30.41" Hg
Pressure 1030 hPa
Elevation 32
METAR EHFS 240255Z AUTO 34007KT 9999 NSC 12/06 Q1030 W///H///
Observed Flight Rules
Sep-24 @ 02:55 UTC
(51 minutes ago)
VFR
Wind Visibility
340° at 7 knots 10,000+ meters
Clouds
  • Clear skies
Temperature Dewpoint
12°C / 54°F 6°C / 43°F
Humidity Altimeter Pressure
67% 30.41" Hg 1030 hPa